Portada
METAR-TAF:

METAR-TAF

Aeropuertos :

Gibraltar, Gibraltar

Aeropuerto de Gibraltar

latitud: 36-09N, longitud: 005-21W, altitud: 5 m

Observación

El informe se hizo hace 20 horas y 19 minutos, a las 14:50 UTC
Viento 3 kt del sur
Temperatura 19°C
Humedad 43%
Presión 1014 hPa
Visibilidad 10 km o más
Escasas nubes a una altura de 3500 ft

METAR: LXGB 201450Z 19003KT 9999 FEW035 19/06 Q1014 NOSIG

Hora: 12:09 (11:09 UTC)

Pronóstico

El informe se hizo hace 21 horas y 42 minutos, a las 13:27 UTC
Pronóstico válido del 20 a las 15 UTC al 20 a las 22 UTC
Viento 4 kt del sur-suroeste
Visibilidad 10 km o más
Escasas nubes a una altura de 3500 ft
Probabilidad 30%
del 20 a las 19 UTC al 20 a las 22 UTC
Visibilidad: 7000 m
calima

TAF: LXGB 201327Z 2015/2022 20004KT 9999 FEW035 PROB30 2019/2022 7000 HZ

Observaciones y pronósticos meteorológicos de más de 4000 aeropuertos (mensajes METAR y TAF).

Los puntos amarillos y rojos representan las estaciones disponibles.

Ponga el ratón en el punto deseado para ver el nombre de la estación.

Haga clic para ver las observaciones y los pronósticos meteorológicos.

Para cambiar el mapa : haga clic en los botones verdes con una cruz de color negro para hacer un zoom, en el botón verde con un guión para alejar o en las flechas verdes para mapas adyacentes.


METAR-TAF: